Time;durP1;ratioP1;P1;durP2;ratioP2;P2;SDS_P1;SDS_P2;PMS_P1;PMS_P2;Temp;Humidity;BMP_temperature;BMP_pressure;BME280_temperature;BME280_humidity;BME280_pressure;Samples;Min_cycle;Max_cycle;Signal;HPM_P1;HPM_P2
2021/12/31 08:09:45;;;;;;;10.02;2.88;;;;;;;17.46;56.42;101590.25;4849073;29;20053;-84
2021/12/31 08:12:10;;;;;;;9.68;2.97;;;;;;;17.45;56.47;101585.91;4845988;29;20063;-81
2021/12/31 09:33:40;;;;;;;5.45;2.08;;;;;;;17.76;56.04;101621.56;4918183;23;20057;-81
2021/12/31 09:38:56;;;;;;;17.77;2.13;;;;;;;17.70;56.18;101614.59;5592437;23;20048;-83
2021/12/31 09:41:59;;;;;;;7.95;1.80;;;;;;;17.68;56.21;101608.50;4852002;29;20053;-81
2021/12/31 09:45:04;;;;;;;8.48;1.90;;;;;;;17.68;56.33;101631.94;4885082;29;20029;-82
2021/12/31 09:54:31;;;;;;;4.07;1.65;;;;;;;17.67;56.16;101654.50;4873544;29;20041;-84
2021/12/31 09:57:19;;;;;;;4.28;1.70;;;;;;;17.70;56.36;101651.03;4818975;29;20043;-81
2021/12/31 09:59:47;;;;;;;4.30;1.60;;;;;;;17.73;56.16;101647.59;4821360;29;20030;-83
2021/12/31 10:02:55;;;;;;;7.38;1.75;;;;;;;17.77;56.28;101626.78;4802856;29;20487;-80
2021/12/31 10:09:04;;;;;;;5.60;1.58;;;;;;;17.83;56.45;101616.41;4767806;30;20087;-84
2021/12/31 10:11:57;;;;;;;7.55;1.50;;;;;;;17.83;56.58;101654.56;4774322;30;20036;-82
2021/12/31 10:17:51;;;;;;;5.88;1.73;;;;;;;17.80;56.78;101618.97;4755114;30;20123;-82
2021/12/31 10:27:20;;;;;;;6.03;2.00;;;;;;;17.76;56.50;101599.00;4706836;30;20061;-83
2021/12/31 10:36:42;;;;;;;5.45;1.70;;;;;;;17.75;56.75;101546.94;5446573;23;20029;-82
2021/12/31 10:59:37;;;;;;;3.90;1.73;;;;;;;17.79;56.48;101599.00;4844179;29;20045;-81
2021/12/31 11:02:22;;;;;;;3.30;1.50;;;;;;;17.82;56.26;101598.19;4842023;29;20042;-82
2021/12/31 11:14:18;;;;;;;4.03;1.60;;;;;;;17.79;59.89;101588.59;5626463;23;20600;-81
2021/12/31 12:40:32;;;;;;;5.65;2.58;;;;;;;16.98;73.59;101659.38;5684816;24;20053;-80
2021/12/31 12:55:11;;;;;;;5.68;2.80;;;;;;;16.94;74.45;101706.16;5177239;23;20041;-80
2021/12/31 12:57:38;;;;;;;6.05;2.90;;;;;;;16.92;75.23;101690.56;4885898;29;20049;-80
2021/12/31 14:09:50;;;;;;;6.10;2.38;;;;;;;17.00;73.06;101704.47;4883449;29;20081;-83
2021/12/31 14:12:48;;;;;;;4.95;2.47;;;;;;;16.97;71.72;101712.25;4843978;29;20050;-82
2021/12/31 14:15:37;;;;;;;5.35;2.55;;;;;;;16.98;72.92;101713.13;4819535;29;20634;-81
2021/12/31 14:21:47;;;;;;;6.93;2.65;;;;;;;17.02;73.64;101705.34;4806111;29;20066;-82
2021/12/31 14:24:12;;;;;;;5.00;2.38;;;;;;;17.10;72.08;101708.00;4778341;30;20066;-81
2021/12/31 14:26:38;;;;;;;4.50;2.10;;;;;;;17.06;72.18;101724.44;4764612;30;20585;-81
2021/12/31 14:29:03;;;;;;;6.22;2.47;;;;;;;17.05;73.26;101718.38;4782295;30;20096;-80
2021/12/31 14:31:29;;;;;;;5.75;2.70;;;;;;;17.01;73.31;101724.44;4766953;30;20115;-81
2021/12/31 14:33:54;;;;;;;5.20;2.47;;;;;;;16.98;73.02;101729.59;4765926;30;20043;-80
2021/12/31 14:36:22;;;;;;;5.70;2.30;;;;;;;17.01;71.88;101733.97;4783609;30;20047;-81
2021/12/31 14:38:47;;;;;;;4.82;2.40;;;;;;;17.05;71.01;101740.94;4772337;30;20039;-81
2021/12/31 14:41:21;;;;;;;5.57;2.50;;;;;;;17.06;70.65;101733.13;4766015;30;20114;-80
2021/12/31 14:47:08;;;;;;;5.97;2.33;;;;;;;17.05;72.12;101740.94;4839631;29;20559;-78
2021/12/31 14:49:35;;;;;;;7.50;2.50;;;;;;;16.94;73.96;101753.84;4855893;29;20049;-77
2021/12/31 14:52:01;;;;;;;7.50;2.70;;;;;;;16.82;76.09;101754.59;4849240;29;20033;-77
2021/12/31 14:54:27;;;;;;;5.70;2.58;;;;;;;16.75;75.10;101751.94;4865886;29;20506;-77
2021/12/31 14:56:53;;;;;;;6.30;2.80;;;;;;;16.71;75.66;101766.63;4834441;29;20073;-77
2021/12/31 14:59:19;;;;;;;4.97;2.47;;;;;;;16.68;74.54;101758.81;4834752;29;20061;-79
2021/12/31 15:01:45;;;;;;;9.18;2.75;;;;;;;16.66;75.05;101771.78;4850475;29;20034;-77
2021/12/31 15:04:10;;;;;;;5.03;2.42;;;;;;;16.69;73.69;101767.47;4835364;29;20033;-77
2021/12/31 15:06:36;;;;;;;7.50;2.90;;;;;;;16.65;75.59;101771.75;4832599;29;20046;-77
2021/12/31 15:09:03;;;;;;;5.32;2.50;;;;;;;16.63;74.19;101768.25;4841528;29;20057;-78
2021/12/31 15:11:29;;;;;;;5.70;2.50;;;;;;;16.64;74.03;101773.47;4847465;29;20042;-78
2021/12/31 15:13:55;;;;;;;5.93;2.78;;;;;;;16.67;75.42;101772.63;4847819;29;20074;-78
2021/12/31 15:16:20;;;;;;;8.55;2.80;;;;;;;16.67;74.05;101762.25;4847666;29;20045;-77
2021/12/31 15:18:47;;;;;;;7.10;2.72;;;;;;;16.69;73.55;101783.91;4847656;29;20505;-78
2021/12/31 15:21:20;;;;;;;5.00;2.75;;;;;;;16.66;74.50;101774.38;4863995;29;20041;-78
2021/12/31 15:23:49;;;;;;;4.82;2.30;;;;;;;16.69;74.55;101783.06;4867655;29;20034;-77
2021/12/31 15:26:15;;;;;;;5.55;2.70;;;;;;;16.64;74.26;101789.06;4853435;29;20045;-77
2021/12/31 15:28:41;;;;;;;7.15;2.60;;;;;;;16.64;74.36;101785.63;4837312;29;20098;-77
2021/12/31 15:31:06;;;;;;;6.53;2.40;;;;;;;16.65;74.01;101788.22;4851369;29;20050;-77
2021/12/31 15:33:32;;;;;;;6.65;2.33;;;;;;;16.66;73.29;101781.31;4834844;29;20405;-77
2021/12/31 15:35:58;;;;;;;6.22;2.65;;;;;;;16.67;73.73;101785.63;4864105;29;20412;-77
2021/12/31 15:38:24;;;;;;;6.05;2.50;;;;;;;16.64;73.07;101786.47;4848418;29;20618;-78
2021/12/31 15:40:50;;;;;;;6.03;2.47;;;;;;;16.65;73.47;101775.22;4839538;29;20048;-77
2021/12/31 15:43:15;;;;;;;5.88;2.35;;;;;;;16.64;73.61;101783.88;4855902;29;20483;-77
2021/12/31 15:45:41;;;;;;;6.20;2.83;;;;;;;16.62;73.25;101795.13;4855797;29;20041;-77
2021/12/31 15:48:08;;;;;;;5.47;2.28;;;;;;;16.64;73.11;101783.88;4867129;29;20481;-78
2021/12/31 15:50:35;;;;;;;8.40;2.58;;;;;;;16.63;72.48;101784.72;4919954;24;20059;-81
2021/12/31 15:53:03;;;;;;;8.68;2.78;;;;;;;16.64;73.64;101802.06;4902227;29;20105;-82
2021/12/31 15:55:29;;;;;;;6.85;2.63;;;;;;;16.64;72.50;101807.28;4902859;29;20040;-82
2021/12/31 15:57:55;;;;;;;7.38;3.00;;;;;;;16.66;74.63;101810.75;4862335;29;20496;-81
2021/12/31 16:00:20;;;;;;;5.45;2.50;;;;;;;16.67;73.56;101802.09;4901347;29;20049;-81
2021/12/31 16:02:46;;;;;;;7.60;2.90;;;;;;;16.69;72.47;101814.25;4877443;29;20074;-81
2021/12/31 16:05:15;;;;;;;7.30;2.58;;;;;;;16.69;74.01;101817.69;4892216;29;20049;-81
2021/12/31 16:08:06;;;;;;;5.70;2.38;;;;;;;16.74;74.29;101825.53;4878653;29;20045;-82
2021/12/31 16:11:10;;;;;;;7.80;2.53;;;;;;;16.76;73.35;101829.91;4902971;29;20024;-83
2021/12/31 16:13:42;;;;;;;5.18;2.38;;;;;;;16.76;72.62;101826.44;4896174;29;20044;-81
2021/12/31 16:16:29;;;;;;;10.07;2.60;;;;;;;16.78;71.92;101828.19;4892243;29;20052;-82
2021/12/31 16:28:56;;;;;;;5.95;2.53;;;;;;;16.84;72.01;101848.22;4900047;29;20052;-82
2021/12/31 16:34:46;;;;;;;7.35;2.60;;;;;;;16.86;71.56;101849.09;4897477;29;20040;-81
2021/12/31 16:37:57;;;;;;;5.32;2.13;;;;;;;16.88;71.32;101860.38;4895917;29;20500;-82
2021/12/31 16:44:29;;;;;;;5.18;2.47;;;;;;;16.88;71.67;101882.94;4880779;29;20157;-83
2021/12/31 16:47:55;;;;;;;7.70;2.90;;;;;;;16.86;71.06;101894.16;4847483;29;20075;-84
2021/12/31 16:50:21;;;;;;;4.95;2.63;;;;;;;16.85;71.34;101901.94;4834074;29;20094;-81
2021/12/31 16:52:47;;;;;;;5.70;2.65;;;;;;;16.83;71.63;101899.34;4847215;29;20039;-81
2021/12/31 16:55:17;;;;;;;5.70;3.03;;;;;;;16.84;72.10;101911.47;4834828;29;20042;-81
2021/12/31 16:57:45;;;;;;;7.55;3.22;;;;;;;16.83;72.26;101903.66;4832785;29;20046;-77
2021/12/31 17:00:13;;;;;;;6.15;3.05;;;;;;;16.83;71.63;101898.44;4812611;29;20125;-76
2021/12/31 17:02:38;;;;;;;6.15;2.90;;;;;;;16.84;71.21;101914.06;4828249;29;20425;-76
2021/12/31 17:05:06;;;;;;;9.13;3.10;;;;;;;16.81;72.69;101913.16;4813465;29;20069;-77
2021/12/31 17:07:31;;;;;;;6.03;2.90;;;;;;;16.82;71.41;101927.91;4827715;29;20042;-77
2021/12/31 17:09:57;;;;;;;6.57;3.15;;;;;;;16.83;70.90;101924.44;4830009;29;20585;-76
2021/12/31 17:12:22;;;;;;;6.93;3.30;;;;;;;16.81;72.35;101924.44;4826808;29;20583;-77
2021/12/31 17:14:48;;;;;;;8.23;3.50;;;;;;;16.84;72.00;101934.00;4796086;29;20052;-77
2021/12/31 17:17:13;;;;;;;7.45;3.67;;;;;;;16.82;71.19;101938.31;4796377;29;20529;-76
2021/12/31 17:19:38;;;;;;;6.55;3.50;;;;;;;16.83;70.67;101937.44;4796335;29;20045;-76
2021/12/31 17:22:04;;;;;;;9.52;3.85;;;;;;;16.82;71.27;101940.91;4826561;29;20034;-76
2021/12/31 17:24:30;;;;;;;8.63;3.60;;;;;;;16.83;71.33;101932.25;4827320;29;20069;-76
2021/12/31 17:26:56;;;;;;;8.27;4.07;;;;;;;16.82;71.61;101939.19;4828366;29;20067;-76
2021/12/31 17:29:21;;;;;;;8.88;4.47;;;;;;;16.82;71.97;101952.19;4864804;29;20476;-76
2021/12/31 17:31:47;;;;;;;7.80;3.67;;;;;;;16.82;71.27;101956.50;4864500;29;20062;-76
2021/12/31 17:34:12;;;;;;;9.07;3.97;;;;;;;16.82;71.50;101961.72;4835354;29;20041;-76
2021/12/31 17:36:37;;;;;;;11.48;4.30;;;;;;;16.81;72.24;101960.84;4833605;29;20045;-77
2021/12/31 17:39:03;;;;;;;8.63;3.78;;;;;;;16.83;70.98;101966.03;4880647;29;20037;-78
2021/12/31 17:41:28;;;;;;;8.55;3.97;;;;;;;16.83;71.74;101961.75;4833929;29;20048;-77
2021/12/31 17:43:53;;;;;;;9.07;4.43;;;;;;;16.82;71.82;101969.50;4865522;29;20096;-78
2021/12/31 17:46:20;;;;;;;57.72;44.22;;;;;;;16.84;73.18;101979.06;4852287;29;20055;-78
2021/12/31 17:48:47;;;;;;;123.53;91.82;;;;;;;16.88;70.81;101979.97;4869691;29;20117;-79
2021/12/31 17:51:15;;;;;;;124.20;93.60;;;;;;;16.93;71.49;101983.50;4862294;29;20061;-77
2021/12/31 17:53:41;;;;;;;121.30;91.28;;;;;;;16.96;71.09;101985.25;4865111;29;20045;-78
2021/12/31 17:56:08;;;;;;;111.05;84.90;;;;;;;17.02;70.85;101999.19;4868487;29;20041;-80
2021/12/31 17:58:33;;;;;;;112.07;82.05;;;;;;;17.02;71.34;101988.78;4894354;29;20033;-79
2021/12/31 18:00:59;;;;;;;105.68;81.00;;;;;;;17.02;71.20;102001.81;4879535;29;20041;-79
2021/12/31 18:03:24;;;;;;;102.70;76.90;;;;;;;17.03;71.46;102006.16;4899929;29;20073;-79
2021/12/31 18:05:50;;;;;;;96.75;74.50;;;;;;;17.05;71.70;101998.38;4875343;29;20441;-78
2021/12/31 18:08:15;;;;;;;94.90;74.03;;;;;;;17.06;71.67;102010.53;4889869;29;20072;-78
2021/12/31 18:10:42;;;;;;;89.78;69.30;;;;;;;17.06;71.94;102020.91;4872434;29;20369;-78
2021/12/31 18:13:07;;;;;;;94.15;70.38;;;;;;;17.04;72.37;102036.50;4887665;29;20033;-78
2021/12/31 18:15:33;;;;;;;87.68;68.40;;;;;;;17.05;72.16;102033.06;4872193;29;20043;-78
2021/12/31 18:17:59;;;;;;;88.38;65.82;;;;;;;17.05;71.46;102042.59;4887731;29;20178;-78
2021/12/31 18:20:24;;;;;;;84.80;65.38;;;;;;;17.04;71.81;102035.63;4886665;29;20567;-78
2021/12/31 18:22:50;;;;;;;85.80;63.30;;;;;;;17.02;71.66;102046.00;4870583;29;20045;-77
2021/12/31 18:25:15;;;;;;;80.18;61.08;;;;;;;17.01;71.59;102046.88;4871792;29;20045;-77
2021/12/31 18:27:41;;;;;;;78.70;59.88;;;;;;;17.01;71.51;102046.88;4871523;29;20104;-77
2021/12/31 18:30:06;;;;;;;73.68;58.10;;;;;;;17.03;71.54;102041.72;4886940;29;20037;-77
2021/12/31 18:32:32;;;;;;;76.88;56.90;;;;;;;17.01;71.58;102035.59;4872112;29;20037;-77
2021/12/31 18:35:07;;;;;;;76.68;56.60;;;;;;;17.02;71.56;102038.22;4872089;29;20052;-78
2021/12/31 18:37:36;;;;;;;75.05;55.30;;;;;;;17.00;71.52;102034.72;4896385;29;20070;-80
2021/12/31 18:40:02;;;;;;;70.10;52.42;;;;;;;17.01;70.76;102036.47;4895402;29;20564;-78
2021/12/31 18:42:28;;;;;;;66.10;51.35;;;;;;;17.00;71.00;102032.13;4888455;29;20041;-78
2021/12/31 18:44:54;;;;;;;65.15;50.05;;;;;;;17.00;71.60;102049.44;4888123;29;20047;-78
2021/12/31 18:47:21;;;;;;;64.85;50.40;;;;;;;17.00;71.20;102058.13;4888895;29;20061;-78
2021/12/31 18:50:01;;;;;;;63.40;48.13;;;;;;;17.02;71.15;102056.41;4891580;29;20039;-80
2021/12/31 18:52:27;;;;;;;61.70;47.08;;;;;;;17.01;71.63;102059.88;4892726;29;20049;-80
2021/12/31 18:54:53;;;;;;;60.33;46.58;;;;;;;17.01;70.92;102067.69;4875607;29;20056;-80
2021/12/31 18:57:21;;;;;;;59.15;45.40;;;;;;;17.00;71.33;102065.91;4858891;29;20055;-81
2021/12/31 18:59:46;;;;;;;56.78;43.20;;;;;;;16.99;71.36;102074.59;4875447;29;20051;-78
2021/12/31 19:02:12;;;;;;;55.85;43.17;;;;;;;17.00;70.87;102080.66;4858904;29;20041;-79
2021/12/31 19:04:37;;;;;;;54.78;40.65;;;;;;;17.00;70.96;102085.84;4874706;29;20033;-80
2021/12/31 19:07:03;;;;;;;52.88;39.80;;;;;;;17.00;70.29;102097.13;4892597;29;20045;-80
2021/12/31 19:09:28;;;;;;;50.92;39.67;;;;;;;17.01;70.49;102095.41;4892535;29;20033;-81
2021/12/31 19:15:35;;;;;;;53.08;38.53;;;;;;;17.02;70.82;102110.16;4901658;29;20049;-80
2021/12/31 19:18:23;;;;;;;49.67;37.22;;;;;;;17.01;70.68;102119.69;4901031;29;20045;-81
2021/12/31 19:20:49;;;;;;;48.20;36.30;;;;;;;17.01;70.42;102122.28;4896880;29;20056;-80
2021/12/31 19:23:21;;;;;;;45.03;34.38;;;;;;;17.02;70.01;102112.75;4872045;29;20045;-80
2021/12/31 19:25:47;;;;;;;44.78;34.90;;;;;;;17.03;70.80;102111.91;4874643;29;20457;-79
2021/12/31 19:28:12;;;;;;;44.25;34.72;;;;;;;17.02;70.64;102116.22;4872942;29;20052;-79
2021/12/31 19:30:37;;;;;;;44.20;32.47;;;;;;;17.02;70.59;102102.34;4856076;29;20041;-79
2021/12/31 19:33:03;;;;;;;44.13;34.22;;;;;;;17.02;70.25;102102.34;4841413;29;20108;-80
2021/12/31 19:35:31;;;;;;;43.22;31.73;;;;;;;17.02;70.67;102110.16;4871395;29;20060;-80
2021/12/31 19:37:56;;;;;;;42.13;31.50;;;;;;;17.02;70.64;102104.97;4876723;29;20049;-80
2021/12/31 19:40:24;;;;;;;42.42;31.45;;;;;;;17.03;70.38;102114.53;4885394;29;20033;-80
2021/12/31 19:42:49;;;;;;;41.78;30.70;;;;;;;17.04;70.02;102117.13;4868764;29;20037;-78
2021/12/31 19:45:15;;;;;;;36.22;28.83;;;;;;;17.05;70.05;102129.28;4843887;29;20048;-79
2021/12/31 19:47:44;;;;;;;39.42;29.17;;;;;;;17.04;69.87;102118.84;4850489;29;20044;-81
2021/12/31 19:50:20;;;;;;;36.65;28.17;;;;;;;17.03;70.11;102123.19;4873099;29;20061;-80
2021/12/31 19:53:20;;;;;;;36.45;26.88;;;;;;;17.03;70.32;102122.31;4888128;29;20083;-81
2021/12/31 19:55:47;;;;;;;34.47;26.67;;;;;;;17.02;69.91;102126.63;4897005;29;20037;-81
2021/12/31 19:58:13;;;;;;;35.03;25.48;;;;;;;17.02;70.10;102118.81;4898678;29;20097;-80
2021/12/31 20:00:39;;;;;;;35.10;26.77;;;;;;;17.04;69.97;102129.25;4873163;29;20373;-79
2021/12/31 20:03:05;;;;;;;31.70;25.25;;;;;;;17.02;69.69;102134.44;4889883;29;20048;-80
2021/12/31 20:05:33;;;;;;;32.17;24.95;;;;;;;17.04;70.28;102127.53;4888145;29;20115;-79
2021/12/31 20:07:59;;;;;;;31.05;24.55;;;;;;;17.04;70.24;102127.53;4887477;29;20058;-80
2021/12/31 20:10:25;;;;;;;31.67;23.85;;;;;;;17.04;69.73;102137.06;4869635;29;20033;-78
2021/12/31 20:12:51;;;;;;;29.48;22.55;;;;;;;17.04;69.62;102140.53;4841055;29;20140;-78
2021/12/31 20:15:19;;;;;;;27.15;22.42;;;;;;;17.06;69.60;102153.56;4886855;29;20120;-79
2021/12/31 20:17:45;;;;;;;31.15;22.63;;;;;;;17.03;69.67;102159.59;4871007;29;20041;-79
2021/12/31 20:20:13;;;;;;;30.67;22.60;;;;;;;17.05;68.98;102168.31;4869134;29;20040;-78
2021/12/31 20:22:39;;;;;;;29.38;22.35;;;;;;;17.06;69.67;102170.03;4867747;29;20503;-79
2021/12/31 20:25:06;;;;;;;29.92;22.02;;;;;;;17.06;69.00;102174.38;4887475;29;20048;-79
2021/12/31 20:27:34;;;;;;;29.92;21.55;;;;;;;17.04;69.75;102169.13;4871711;29;20045;-79
2021/12/31 20:30:00;;;;;;;26.50;20.38;;;;;;;17.03;69.53;102167.41;4887814;29;20029;-79
2021/12/31 20:32:25;;;;;;;26.98;20.83;;;;;;;17.05;69.46;102170.03;4871533;29;20388;-79
2021/12/31 20:34:50;;;;;;;24.90;20.33;;;;;;;17.06;70.12;102174.38;4856992;29;20048;-78
2021/12/31 20:37:19;;;;;;;27.38;19.98;;;;;;;17.06;69.30;102167.44;4882538;29;20053;-81
2021/12/31 20:43:07;;;;;;;26.02;19.90;;;;;;;17.05;69.23;102172.63;4894484;29;20103;-80
2021/12/31 20:55:56;;;;;;;22.73;17.40;;;;;;;17.09;70.07;102196.94;4899683;29;20060;-81
2021/12/31 20:58:42;;;;;;;26.25;18.40;;;;;;;17.08;68.71;102188.25;4884398;29;20049;-81
2021/12/31 21:04:41;;;;;;;;;;;;;;;17.09;68.95;102186.53;4900080;29;20097;-81
2021/12/31 21:07:07;;;;;;;21.83;16.02;;;;;;;17.06;68.69;102180.44;4881956;29;19912;-81
2021/12/31 21:09:33;;;;;;;22.25;16.92;;;;;;;17.07;69.53;102194.31;4895014;29;20033;-81
2021/12/31 21:12:02;;;;;;;20.88;15.77;;;;;;;17.07;69.72;102191.69;4864820;29;20045;-82
2021/12/31 21:14:47;;;;;;;21.98;16.70;;;;;;;17.08;69.05;102192.59;4880014;29;20069;-82
2021/12/31 21:17:33;;;;;;;20.13;15.43;;;;;;;17.08;69.74;102198.66;4879649;29;20038;-81
2021/12/31 21:20:01;;;;;;;19.88;14.55;;;;;;;17.08;70.16;102205.59;4873144;29;20069;-81
2021/12/31 21:25:48;;;;;;;20.15;14.63;;;;;;;17.10;68.94;102209.09;4874673;29;20070;-80
2021/12/31 21:28:22;;;;;;;20.17;14.90;;;;;;;17.06;69.46;102209.03;4865194;29;20057;-82
2021/12/31 21:30:50;;;;;;;19.80;14.30;;;;;;;17.08;68.16;102221.22;4847745;29;20065;-78
2021/12/31 21:33:22;;;;;;;18.83;14.82;;;;;;;17.09;68.46;102220.34;4867542;29;20032;-82
2021/12/31 21:36:08;;;;;;;21.15;15.15;;;;;;;17.09;68.60;102218.63;4882804;29;20609;-81
2021/12/31 21:42:49;;;;;;;20.80;14.50;;;;;;;17.09;68.93;102226.41;4887740;29;20029;-83
2021/12/31 21:55:12;;;;;;;17.73;13.25;;;;;;;17.10;69.28;102214.31;4825790;23;19930;-77
2021/12/31 21:57:38;;;;;;;17.38;13.32;;;;;;;17.08;69.23;102211.69;4865463;29;20045;-85
2021/12/31 22:00:09;;;;;;;18.25;13.35;;;;;;;17.09;69.40;102210.81;4833121;29;20484;-78
2021/12/31 22:02:35;;;;;;;19.08;13.73;;;;;;;17.09;68.38;102208.22;4865200;29;20488;-79
2021/12/31 22:05:00;;;;;;;16.17;12.95;;;;;;;17.10;69.00;102199.56;4865084;29;20052;-84
2021/12/31 22:07:26;;;;;;;19.70;13.95;;;;;;;17.09;69.83;102217.75;4848803;29;20052;-86
2021/12/31 22:09:51;;;;;;;17.58;12.65;;;;;;;17.09;69.89;102217.75;4833556;29;20049;-84
2021/12/31 22:12:17;;;;;;;17.05;12.82;;;;;;;17.06;68.94;102214.25;4833194;29;20041;-82
2021/12/31 22:14:43;;;;;;;19.02;12.95;;;;;;;17.06;69.20;102210.78;4848509;29;20441;-85
2021/12/31 22:17:08;;;;;;;15.27;12.20;;;;;;;17.08;69.43;102218.63;4863762;29;20544;-84
2021/12/31 22:19:34;;;;;;;17.23;12.80;;;;;;;17.08;69.04;102223.81;4833326;29;20041;-83
2021/12/31 22:21:59;;;;;;;18.75;13.05;;;;;;;17.05;70.04;102232.44;4848523;29;20124;-81
2021/12/31 22:24:24;;;;;;;16.77;12.50;;;;;;;17.05;70.15;102233.31;4833034;29;20118;-79
2021/12/31 22:26:50;;;;;;;18.70;12.63;;;;;;;17.06;69.23;102237.66;4817763;29;20061;-76
2021/12/31 22:29:15;;;;;;;18.00;12.90;;;;;;;17.06;69.62;102237.66;4832557;29;20033;-76
2021/12/31 22:31:41;;;;;;;16.98;12.75;;;;;;;17.06;68.69;102229.84;4864773;29;20037;-75
2021/12/31 22:34:06;;;;;;;16.08;11.55;;;;;;;17.08;68.11;102226.41;4833088;29;20030;-76
2021/12/31 22:36:32;;;;;;;17.15;12.00;;;;;;;17.06;69.87;102223.78;4832957;29;20042;-75
2021/12/31 22:38:58;;;;;;;16.45;11.68;;;;;;;17.06;69.15;102222.03;4864681;29;20063;-76
2021/12/31 22:41:24;;;;;;;17.63;12.60;;;;;;;17.06;69.76;102226.38;4865485;29;20034;-78
2021/12/31 22:43:50;;;;;;;18.08;12.25;;;;;;;17.05;69.57;102222.03;4866166;29;20136;-75
2021/12/31 22:46:15;;;;;;;18.23;12.85;;;;;;;17.06;69.46;102223.78;4823249;29;20441;-77
2021/12/31 22:48:40;;;;;;;19.25;12.02;;;;;;;17.04;69.46;102223.75;4820040;29;20043;-77
2021/12/31 22:51:06;;;;;;;14.55;11.13;;;;;;;17.05;69.65;102232.44;4818420;29;20401;-75
2021/12/31 22:53:31;;;;;;;17.83;11.63;;;;;;;17.06;68.87;102227.25;4820516;29;20095;-78
2021/12/31 22:55:56;;;;;;;15.70;11.23;;;;;;;17.08;68.62;102229.88;4850799;29;20147;-79
2021/12/31 22:58:22;;;;;;;15.50;11.05;;;;;;;17.08;69.29;102235.09;4820819;29;20085;-76
2021/12/31 23:00:56;;;;;;;17.90;11.50;;;;;;;17.07;68.83;102241.13;4867444;29;20037;-76
2021/12/31 23:03:29;;;;;;;17.50;11.73;;;;;;;17.06;69.06;102245.44;4867240;29;20045;-75
2021/12/31 23:05:56;;;;;;;17.10;11.63;;;;;;;17.07;68.45;102246.31;4850798;29;20042;-77
2021/12/31 23:08:21;;;;;;;19.38;11.50;;;;;;;17.06;69.30;102257.59;4866463;29;20037;-76
2021/12/31 23:10:47;;;;;;;17.60;11.60;;;;;;;17.06;68.28;102261.06;4835781;29;20139;-77
2021/12/31 23:13:12;;;;;;;18.35;11.95;;;;;;;17.05;69.21;102264.53;4835721;29;20393;-77
2021/12/31 23:15:38;;;;;;;18.27;13.18;;;;;;;17.05;69.56;102255.84;4850004;29;20049;-76
2021/12/31 23:18:04;;;;;;;19.27;13.77;;;;;;;17.03;68.77;102262.75;4834233;29;20049;-77
2021/12/31 23:20:30;;;;;;;22.63;17.27;;;;;;;17.02;69.42;102268.78;4849249;29;20041;-76
2021/12/31 23:22:56;;;;;;;24.08;17.48;;;;;;;17.01;68.44;102270.53;4848577;29;20040;-77
2021/12/31 23:25:22;;;;;;;24.73;16.77;;;;;;;17.01;69.35;102272.25;4816994;29;20065;-79
2021/12/31 23:27:52;;;;;;;25.45;17.88;;;;;;;17.01;68.58;102275.72;4847729;29;20105;-79
2021/12/31 23:30:23;;;;;;;24.75;16.83;;;;;;;17.02;69.04;102280.06;4832545;29;20034;-78
2021/12/31 23:32:49;;;;;;;22.17;17.77;;;;;;;17.01;68.50;102267.94;4832285;29;20038;-76
2021/12/31 23:35:16;;;;;;;25.73;17.25;;;;;;;17.03;68.59;102266.22;4847658;29;20052;-77
2021/12/31 23:37:43;;;;;;;25.85;17.63;;;;;;;17.03;68.88;102284.44;4832208;29;20405;-75
2021/12/31 23:40:09;;;;;;;27.27;18.50;;;;;;;17.02;68.29;102277.47;4831939;29;20046;-76
2021/12/31 23:42:36;;;;;;;25.30;18.73;;;;;;;17.02;68.74;102290.47;4816923;29;20048;-76
2021/12/31 23:45:04;;;;;;;25.38;18.25;;;;;;;17.03;68.70;102288.78;4817099;29;20076;-76
2021/12/31 23:47:30;;;;;;;22.48;17.45;;;;;;;17.02;68.46;102295.66;4847012;29;20037;-74
2021/12/31 23:49:56;;;;;;;24.70;18.02;;;;;;;17.02;68.91;102294.81;4847374;29;20143;-76
2021/12/31 23:52:22;;;;;;;23.33;18.40;;;;;;;17.03;68.73;102300.03;4833385;29;20134;-76
2021/12/31 23:54:48;;;;;;;27.70;19.60;;;;;;;17.02;68.71;102294.81;4864147;29;20456;-76
2021/12/31 23:57:14;;;;;;;25.42;18.35;;;;;;;17.01;68.82;102288.72;4832597;29;20042;-75
2021/12/31 23:59:40;;;;;;;26.67;19.27;;;;;;;17.01;68.70;102293.94;4832710;29;20037;-76
